Aérodrome :
LOGIN :

S'inscrire | Disclaimer

   EN    FR    IT 

 










Légende :    VFR   VFR Marginal   IFR   IFR Intensif   IFR Très Intensif
Visi : 
Plafond : 
>= 8 km
>= 3000ft
5 à 8 km
1000 à 3000 ft
1500m à 5 km
500 à 1000 ft
800 à 1500m
200 à 500 ft
< 800m
< 200 ft
Symboles :   Orages  Brouillard  Fortes neiges  Fortes précipitations  Vent > 20 kt
SIGMETs :   Divers  Orages  Givrage  Turbulence  Onde Orograph.  Cendres Volcan.






- Altitude de l'aérodrome : 38 ft
- Code IATA : TRE


EGPU - Tiree

DERNIER METAR :
  • 281150Z 25012KT 9999 -SHRA FEW032 06/04 Q0982

METARs EXPIRÉS :
  • 281120Z 27013KT 9999 VCSH FEW022 BKN029 05/03 Q0982 RESHRA
  • 281050Z 24017KT 9999 VCSH SCT019CB SCT034 06/03 Q0982
  • 281020Z 25015KT 9999 VCSH SCT022 06/03 Q0982
  • 280950Z 24011KT 9999 FEW016 SCT032 05/03 Q0981
  • 280920Z 24011KT 9999 VCSH SCT022 04/02 Q0981

TAF TAF EGPU
Valide du 28 à 12h jusqu'au 28 à 19h UTC


281104Z 2812/2819 23012KT 9999 SCT016
TEMPO 2812/2819 25015G25KT 6000 SHRA SHRAGS BKN012CB
PROB30
TEMPO 2812/2819 27025G35KT 2000 +TSRA TSGS BKN008



MET'MAP, la Météo Aéronautique d'un coup d'oeil ! - Copyright ORBIFLY Décembre 2007 - Disclaimer

ORBIFLY MET'MAP TEAM :

Programmation & Développement : Alexandra Zaïnal
Sur une idée originale de : Baudouin d'Aumeries
Assistance à la programmation : Marc-Olivier Méhu
Soutien technique & logistique : Manuel Goepfert

Contact : metmap@orbifly.com




SOURCES & CREDITS :

   NOAA